Time;durP1;ratioP1;P1;durP2;ratioP2;P2;SDS_P1;SDS_P2;PMS_P1;PMS_P2;Temp;Humidity;BMP_temperature;BMP_pressure;BME280_temperature;BME280_humidity;BME280_pressure;Samples;Min_cycle;Max_cycle;Signal;HPM_P1;HPM_P2
2023/08/19 00:00:27;;;;;;;22.67;16.75;;;;;;;22.36;100.00;101095.97;4807703;29;20047;-65
2023/08/19 00:02:55;;;;;;;22.15;17.98;;;;;;;22.36;100.00;101100.72;4807903;29;20055;-66
2023/08/19 00:05:24;;;;;;;20.17;15.63;;;;;;;22.34;100.00;101098.25;4790394;30;20058;-66
2023/08/19 00:07:51;;;;;;;22.45;17.40;;;;;;;22.34;100.00;101092.72;4790056;30;20096;-66
2023/08/19 00:10:19;;;;;;;22.23;17.40;;;;;;;22.34;100.00;101092.72;4773880;30;20055;-66
2023/08/19 00:12:47;;;;;;;22.13;16.92;;;;;;;22.33;100.00;101086.34;4791768;29;20058;-67
2023/08/19 00:15:15;;;;;;;20.90;16.85;;;;;;;22.32;100.00;101083.91;4791523;29;20423;-66
2023/08/19 00:17:43;;;;;;;21.10;16.27;;;;;;;22.32;100.00;101075.59;4807453;29;20061;-66
2023/08/19 00:20:11;;;;;;;21.25;17.65;;;;;;;22.30;100.00;101078.72;4823002;29;20492;-65
2023/08/19 00:22:39;;;;;;;19.05;15.60;;;;;;;22.30;100.00;101072.38;4814686;29;20058;-65
2023/08/19 00:25:08;;;;;;;21.73;17.98;;;;;;;22.30;100.00;101072.38;4791602;29;20091;-64
2023/08/19 00:27:35;;;;;;;19.30;15.68;;;;;;;22.27;100.00;101062.75;4809725;29;20377;-65
2023/08/19 00:30:04;;;;;;;18.63;15.98;;;;;;;22.28;100.00;101071.88;4810976;29;20054;-65
2023/08/19 00:32:31;;;;;;;19.60;14.95;;;;;;;22.27;100.00;101070.25;4789344;29;20066;-65
2023/08/19 00:34:59;;;;;;;22.15;17.95;;;;;;;22.27;100.00;101070.25;4773984;30;20504;-65
2023/08/19 00:37:28;;;;;;;21.17;16.55;;;;;;;22.26;100.00;101068.63;4776266;30;20408;-65
2023/08/19 00:39:56;;;;;;;19.95;17.02;;;;;;;22.26;100.00;101068.63;4775615;30;20047;-65
2023/08/19 00:42:24;;;;;;;17.90;15.10;;;;;;;22.25;100.00;101078.13;4774268;29;20067;-65
2023/08/19 00:44:52;;;;;;;18.95;16.15;;;;;;;22.25;100.00;101080.91;4792320;29;20050;-65
2023/08/19 00:47:20;;;;;;;21.88;17.27;;;;;;;22.24;100.00;101079.25;4791789;29;20055;-65
2023/08/19 00:49:49;;;;;;;20.58;16.58;;;;;;;22.24;100.00;101082.03;4794148;29;20059;-66
2023/08/19 00:52:17;;;;;;;20.70;16.30;;;;;;;22.23;100.00;101085.97;4791045;29;20047;-65
2023/08/19 00:54:45;;;;;;;20.85;18.58;;;;;;;22.22;100.00;101081.56;4792739;29;20057;-65
2023/08/19 00:57:13;;;;;;;20.38;16.75;;;;;;;22.20;100.00;101075.50;4794916;29;20054;-65
2023/08/19 00:59:41;;;;;;;22.70;18.13;;;;;;;22.19;100.00;101079.44;4776849;29;20050;-65
2023/08/19 01:02:09;;;;;;;23.05;18.88;;;;;;;22.18;100.00;101078.66;4790118;29;20512;-65
2023/08/19 01:04:37;;;;;;;19.58;16.50;;;;;;;22.19;100.00;101073.91;4789907;29;20058;-65
2023/08/19 01:07:50;;;;;;;22.30;18.17;;;;;;;22.16;100.00;101069.84;4776468;29;20055;-65
2023/08/19 01:10:56;;;;;;;19.90;17.05;;;;;;;22.15;100.00;101072.94;4790759;29;20054;-67
2023/08/19 01:13:30;;;;;;;21.60;17.85;;;;;;;22.15;100.00;101072.94;4789896;29;20057;-64
2023/08/19 01:16:07;;;;;;;23.80;18.58;;;;;;;22.16;100.00;101063.50;4775079;29;20047;-65
2023/08/19 01:18:37;;;;;;;23.83;17.95;;;;;;;22.13;100.00;101065.78;4806978;29;20043;-65
2023/08/19 01:21:05;;;;;;;25.63;18.90;;;;;;;22.12;100.00;101063.34;4790524;29;20054;-65
2023/08/19 01:23:42;;;;;;;22.85;18.00;;;;;;;22.11;100.00;101065.31;4779120;30;20516;-65
2023/08/19 01:26:10;;;;;;;21.70;17.73;;;;;;;22.11;100.00;101061.72;4787625;30;20051;-65
2023/08/19 01:28:38;;;;;;;24.10;18.00;;;;;;;22.09;100.00;101059.28;4773076;30;20051;-65
2023/08/19 01:31:05;;;;;;;21.27;17.67;;;;;;;22.09;100.00;101064.03;4787112;30;20059;-65
2023/08/19 01:33:34;;;;;;;21.65;17.15;;;;;;;22.08;100.00;101056.84;4805126;29;20066;-64
2023/08/19 01:36:01;;;;;;;20.80;16.90;;;;;;;22.09;100.00;101059.28;4790670;29;20055;-66
2023/08/19 01:39:08;;;;;;;22.95;17.38;;;;;;;22.07;100.00;101056.03;4806370;29;20054;-66
2023/08/19 01:41:36;;;;;;;24.00;17.63;;;;;;;22.07;100.00;101053.25;4776870;29;20381;-65
2023/08/19 01:44:04;;;;;;;20.40;17.75;;;;;;;22.06;100.00;101048.88;4774168;29;20416;-64
2023/08/19 01:46:31;;;;;;;20.67;16.27;;;;;;;22.05;100.00;101040.88;4758689;30;20500;-65
2023/08/19 01:49:00;;;;;;;21.77;17.50;;;;;;;22.05;100.00;101040.88;4758423;30;20062;-65
2023/08/19 01:51:30;;;;;;;24.35;18.55;;;;;;;22.05;100.00;101033.34;4793177;29;20058;-65
2023/08/19 01:53:58;;;;;;;21.50;18.30;;;;;;;22.05;100.00;101030.59;4775988;29;20084;-65
2023/08/19 01:56:26;;;;;;;22.73;18.58;;;;;;;22.06;100.00;101034.19;4790144;29;20062;-65
2023/08/19 01:58:54;;;;;;;22.60;17.90;;;;;;;22.06;100.00;101036.97;4790770;29;20051;-65
2023/08/19 02:01:23;;;;;;;26.02;18.63;;;;;;;22.05;100.00;101030.59;4790142;29;20054;-65
2023/08/19 02:03:50;;;;;;;22.35;17.90;;;;;;;22.07;100.00;101021.94;4790121;29;20046;-65
2023/08/19 02:06:19;;;;;;;20.25;17.65;;;;;;;22.06;100.00;101031.41;4805591;29;20054;-65
2023/08/19 02:08:47;;;;;;;23.42;18.17;;;;;;;22.06;100.00;101032.22;4806192;29;20055;-65
2023/08/19 02:11:15;;;;;;;21.48;17.40;;;;;;;22.05;100.00;101033.34;4806445;29;20073;-65
2023/08/19 02:13:43;;;;;;;23.63;19.00;;;;;;;22.05;100.00;101025.03;4792093;29;20047;-65
2023/08/19 02:16:10;;;;;;;23.35;19.10;;;;;;;22.06;100.00;101021.13;4805818;29;20050;-65
2023/08/19 02:18:38;;;;;;;21.23;17.67;;;;;;;22.06;100.00;101025.88;4794101;29;20077;-65
2023/08/19 02:21:06;;;;;;;22.33;19.25;;;;;;;22.07;100.00;101028.28;4819384;29;20051;-66
2023/08/19 02:23:34;;;;;;;22.52;18.13;;;;;;;22.07;100.00;101019.97;4792306;29;20061;-65
2023/08/19 02:26:02;;;;;;;23.55;18.45;;;;;;;22.06;100.00;101026.69;4790530;29;20055;-65
2023/08/19 02:28:29;;;;;;;19.20;15.90;;;;;;;22.07;100.00;101019.97;4802386;29;20426;-66
2023/08/19 02:31:05;;;;;;;21.75;18.45;;;;;;;22.08;100.00;101016.03;4818936;29;20520;-65
2023/08/19 02:33:32;;;;;;;27.65;16.55;;;;;;;22.08;100.00;101013.28;4806476;29;20071;-66
2023/08/19 02:36:01;;;;;;;19.55;15.70;;;;;;;22.08;100.00;101010.50;4789969;29;20522;-66
2023/08/19 02:38:29;;;;;;;21.27;16.75;;;;;;;22.08;100.00;101013.28;4790128;29;20492;-65
2023/08/19 02:40:58;;;;;;;21.13;16.98;;;;;;;22.07;100.00;101011.63;4790162;29;20055;-65
2023/08/19 02:43:25;;;;;;;21.98;16.77;;;;;;;22.09;100.00;101014.06;4818218;29;20095;-66
2023/08/19 02:45:53;;;;;;;22.73;17.00;;;;;;;22.09;100.00;101003.78;4789653;29;20415;-65
2023/08/19 02:48:21;;;;;;;23.80;18.63;;;;;;;22.09;100.00;100998.22;4789789;29;20055;-65
2023/08/19 02:50:53;;;;;;;21.60;15.80;;;;;;;22.09;100.00;101002.97;4777004;29;20051;-64
2023/08/19 02:53:21;;;;;;;22.10;17.63;;;;;;;22.08;100.00;100996.63;4778376;29;20051;-66
2023/08/19 02:55:53;;;;;;;20.77;15.43;;;;;;;22.09;100.00;100994.66;4793429;29;20061;-65
2023/08/19 02:58:21;;;;;;;21.15;16.50;;;;;;;22.09;100.00;100994.66;4791550;30;20063;-65
2023/08/19 03:00:49;;;;;;;18.73;14.02;;;;;;;22.08;100.00;100993.84;4799605;29;20055;-65
2023/08/19 03:03:17;;;;;;;18.90;15.32;;;;;;;22.09;100.00;100992.69;4778345;29;20042;-65
2023/08/19 03:05:46;;;;;;;20.55;16.15;;;;;;;22.09;100.00;100998.22;4763527;29;20440;-65
2023/08/19 03:08:14;;;;;;;22.40;16.92;;;;;;;22.09;100.00;100991.88;4793570;29;20069;-64
2023/08/19 03:10:42;;;;;;;20.65;15.45;;;;;;;22.09;100.00;100992.69;4808954;29;20063;-65
2023/08/19 03:13:09;;;;;;;21.75;16.08;;;;;;;22.10;100.00;100999.88;4824070;29;20088;-64
2023/08/19 03:15:38;;;;;;;20.05;14.98;;;;;;;22.11;100.00;101000.69;4826862;29;20054;-64
2023/08/19 03:18:06;;;;;;;18.92;15.38;;;;;;;22.11;100.00;101004.25;4810542;29;20495;-64
2023/08/19 03:20:34;;;;;;;24.10;16.23;;;;;;;22.11;100.00;100995.94;4827069;29;20062;-65
2023/08/19 03:23:02;;;;;;;18.83;14.70;;;;;;;22.10;100.00;100994.31;4796234;29;20046;-65
2023/08/19 03:25:31;;;;;;;18.20;13.68;;;;;;;22.10;100.00;100994.31;4809899;29;20058;-65
2023/08/19 03:27:58;;;;;;;16.10;13.70;;;;;;;22.11;100.00;100990.38;4809535;29;20051;-65
2023/08/19 03:30:26;;;;;;;16.02;13.55;;;;;;;22.11;100.00;100990.38;4792512;29;20057;-66
2023/08/19 03:32:54;;;;;;;20.55;12.50;;;;;;;22.11;100.00;100990.38;4792868;29;20074;-65
2023/08/19 03:35:22;;;;;;;18.92;13.45;;;;;;;22.13;100.00;100988.06;4792247;29;20124;-66
2023/08/19 03:37:50;;;;;;;16.77;12.30;;;;;;;22.12;100.00;100992.00;4809293;29;20062;-64
2023/08/19 03:40:18;;;;;;;18.55;13.30;;;;;;;22.11;100.00;100990.38;4787070;29;20449;-65
2023/08/19 03:42:46;;;;;;;17.38;13.35;;;;;;;22.12;100.00;100982.84;4810594;29;20054;-65
2023/08/19 03:45:13;;;;;;;16.13;13.80;;;;;;;22.12;100.00;100982.84;4810919;29;20058;-65
2023/08/19 03:47:41;;;;;;;19.50;13.55;;;;;;;22.11;100.00;100984.03;4796064;29;20058;-65
2023/08/19 03:50:10;;;;;;;19.80;11.50;;;;;;;22.12;100.00;100982.84;4793185;29;20123;-64
2023/08/19 03:52:38;;;;;;;19.50;12.50;;;;;;;22.12;100.00;100986.44;4800869;29;20054;-65
2023/08/19 03:55:09;;;;;;;13.93;11.40;;;;;;;22.12;100.00;100992.00;4802660;29;20050;-65
2023/08/19 03:57:36;;;;;;;19.10;13.77;;;;;;;22.12;100.00;100991.19;4815723;29;20488;-65
2023/08/19 04:00:06;;;;;;;17.17;11.60;;;;;;;22.11;100.00;100993.16;4800065;29;20055;-64
2023/08/19 04:02:40;;;;;;;16.70;12.43;;;;;;;22.11;100.00;100990.38;4813241;29;20051;-65
2023/08/19 04:05:11;;;;;;;16.95;13.50;;;;;;;22.11;100.00;100990.38;4794570;29;20126;-64
2023/08/19 04:07:39;;;;;;;15.43;12.20;;;;;;;22.11;100.00;100993.16;4790354;29;20073;-65
2023/08/19 04:10:08;;;;;;;15.45;11.63;;;;;;;22.10;100.00;100999.88;4807490;29;20043;-65
2023/08/19 04:12:36;;;;;;;16.13;12.43;;;;;;;22.10;100.00;100994.31;4789712;29;20054;-66
2023/08/19 04:15:05;;;;;;;17.58;12.20;;;;;;;22.09;100.00;100987.13;4790861;29;20046;-65
2023/08/19 04:17:34;;;;;;;17.13;12.43;;;;;;;22.10;100.00;100988.78;4775355;29;20407;-66
2023/08/19 04:20:08;;;;;;;13.45;10.40;;;;;;;22.10;100.00;100982.38;4775898;29;20496;-65
2023/08/19 04:22:37;;;;;;;16.88;12.32;;;;;;;22.09;100.00;100981.59;4789604;29;20047;-65
2023/08/19 04:25:05;;;;;;;18.75;12.27;;;;;;;22.09;100.00;100978.81;4805412;29;20440;-65
2023/08/19 04:27:33;;;;;;;18.05;11.55;;;;;;;22.09;100.00;100992.69;4806119;29;20066;-65
2023/08/19 04:30:05;;;;;;;17.80;12.15;;;;;;;22.09;100.00;100991.88;4763485;29;20055;-65
2023/08/19 04:32:33;;;;;;;23.77;11.73;;;;;;;22.10;100.00;100996.25;4791745;29;20055;-66
2023/08/19 04:35:01;;;;;;;16.52;10.77;;;;;;;22.10;100.00;100997.09;4792723;29;20061;-65
2023/08/19 04:37:29;;;;;;;14.98;10.88;;;;;;;22.10;100.00;100988.78;4791804;29;20051;-65
2023/08/19 04:39:57;;;;;;;17.50;11.20;;;;;;;22.10;100.00;100994.31;4791071;29;20062;-65
2023/08/19 04:42:33;;;;;;;15.77;10.45;;;;;;;22.11;100.00;100998.72;4791286;29;20043;-64
2023/08/19 04:45:01;;;;;;;15.63;10.93;;;;;;;22.12;100.00;101002.28;4790679;29;20062;-65
2023/08/19 04:47:35;;;;;;;17.20;11.10;;;;;;;22.11;100.00;101007.03;4776408;29;20057;-65
2023/08/19 04:50:08;;;;;;;17.58;11.30;;;;;;;22.11;100.00;101015.34;4776954;29;20065;-66
2023/08/19 04:52:37;;;;;;;15.10;10.40;;;;;;;22.11;100.00;101012.59;4776157;29;20054;-65
2023/08/19 04:55:08;;;;;;;16.48;10.63;;;;;;;22.12;100.00;101018.94;4791167;29;20055;-66
2023/08/19 04:57:36;;;;;;;19.50;10.55;;;;;;;22.11;100.00;101007.03;4776005;29;20415;-66
2023/08/19 05:00:05;;;;;;;16.85;10.20;;;;;;;22.12;100.00;101013.38;4791027;29;20507;-65
2023/08/19 05:02:33;;;;;;;16.15;11.25;;;;;;;22.12;100.00;101022.53;4806507;29;20055;-65
2023/08/19 05:05:01;;;;;;;15.20;10.07;;;;;;;22.11;100.00;101018.13;4790151;29;20050;-66
2023/08/19 05:07:29;;;;;;;16.15;10.20;;;;;;;22.13;100.00;101023.34;4792164;29;20500;-65
2023/08/19 05:09:57;;;;;;;16.27;10.65;;;;;;;22.13;100.00;101015.03;4806990;29;20050;-65
2023/08/19 05:12:25;;;;;;;19.80;10.98;;;;;;;22.13;100.00;101009.47;4790949;29;20054;-65
2023/08/19 05:14:53;;;;;;;16.48;10.57;;;;;;;22.13;100.00;101020.56;4790437;29;20053;-67
2023/08/19 05:17:20;;;;;;;14.63;8.90;;;;;;;22.13;100.00;101007.50;4790959;29;20059;-66
2023/08/19 05:19:48;;;;;;;15.50;10.27;;;;;;;22.13;100.00;101004.72;4790904;29;20077;-65
2023/08/19 05:22:16;;;;;;;17.73;9.70;;;;;;;22.14;100.00;101011.09;4776094;29;20530;-65
2023/08/19 05:24:45;;;;;;;17.73;10.45;;;;;;;22.15;100.00;101003.56;4790520;29;20043;-66
2023/08/19 05:27:13;;;;;;;13.95;9.02;;;;;;;22.14;100.00;101011.09;4806564;29;20054;-66
2023/08/19 05:29:41;;;;;;;16.20;9.20;;;;;;;22.15;100.00;101009.13;4776466;29;20061;-66
2023/08/19 05:32:08;;;;;;;15.07;9.55;;;;;;;22.15;100.00;101014.66;4806867;29;20492;-66
2023/08/19 05:34:36;;;;;;;18.70;10.00;;;;;;;22.15;100.00;101020.22;4790805;29;20062;-65
2023/08/19 05:37:06;;;;;;;22.70;9.73;;;;;;;22.16;100.00;101024.63;4825412;29;20058;-67
2023/08/19 05:39:34;;;;;;;14.07;8.57;;;;;;;22.17;100.00;101021.50;4827440;29;20134;-65
2023/08/19 05:42:02;;;;;;;13.15;8.50;;;;;;;22.18;100.00;101022.31;4824755;29;20062;-66
2023/08/19 05:44:30;;;;;;;12.48;8.75;;;;;;;22.19;100.00;101021.16;4799443;29;20078;-66
2023/08/19 05:46:57;;;;;;;13.38;9.00;;;;;;;22.20;100.00;101025.56;4791079;29;20415;-65
2023/08/19 05:49:25;;;;;;;16.08;8.73;;;;;;;22.22;100.00;101023.28;4808043;29;20074;-65
2023/08/19 05:51:53;;;;;;;15.50;8.82;;;;;;;22.24;100.00;101037.63;4807992;29;20051;-65
2023/08/19 05:54:21;;;;;;;14.48;8.77;;;;;;;22.24;100.00;101034.84;4807163;29;20050;-66
2023/08/19 05:56:48;;;;;;;15.02;8.80;;;;;;;22.24;100.00;101030.09;4793079;29;20051;-65
2023/08/19 05:59:16;;;;;;;12.75;7.55;;;;;;;22.26;100.00;101040.88;4809311;29;20500;-65
2023/08/19 06:01:44;;;;;;;14.23;8.48;;;;;;;22.26;100.00;101040.88;4794694;29;20107;-66
2023/08/19 06:04:13;;;;;;;18.05;9.25;;;;;;;22.26;100.00;101047.22;4809805;29;20130;-66
2023/08/19 06:06:40;;;;;;;13.75;9.00;;;;;;;22.28;100.00;101038.56;4795689;29;20452;-65
2023/08/19 06:09:09;;;;;;;14.00;8.68;;;;;;;22.29;100.00;101040.19;4794166;29;20038;-65
2023/08/19 06:11:48;;;;;;;14.10;8.40;;;;;;;22.30;100.00;101034.31;4793800;29;20057;-66
2023/08/19 06:14:16;;;;;;;15.95;8.45;;;;;;;22.31;100.00;101024.81;4792412;29;20061;-65
2023/08/19 06:16:45;;;;;;;14.52;8.57;;;;;;;22.33;100.00;101025.28;4791257;29;20057;-65
2023/08/19 06:19:13;;;;;;;14.65;8.45;;;;;;;22.35;100.00;101022.16;4791142;29;20054;-66
2023/08/19 06:21:41;;;;;;;14.40;8.25;;;;;;;22.37;100.00;101032.91;4791211;29;20186;-66
2023/08/19 06:24:09;;;;;;;15.70;8.50;;;;;;;22.38;100.00;101026.22;4790178;29;20508;-66
2023/08/19 06:26:36;;;;;;;14.10;8.75;;;;;;;22.38;100.00;101046.47;4810805;29;20054;-67
2023/08/19 06:29:04;;;;;;;13.65;8.20;;;;;;;22.41;100.00;101040.22;4792260;29;20061;-67
2023/08/19 06:31:33;;;;;;;15.73;8.68;;;;;;;22.42;100.00;101047.41;4793668;29;20050;-67
2023/08/19 06:34:01;;;;;;;13.73;9.57;;;;;;;22.43;100.00;101049.03;4794951;29;20067;-67
2023/08/19 06:36:29;;;;;;;17.65;8.75;;;;;;;22.45;100.00;101054.25;4810127;29;20527;-68
2023/08/19 06:39:25;;;;;;;17.77;9.75;;;;;;;22.45;100.00;101049.50;4794463;29;20062;-68
2023/08/19 06:42:05;;;;;;;13.50;8.70;;;;;;;22.49;100.00;101066.28;4791641;30;20059;-67
2023/08/19 06:44:34;;;;;;;19.95;10.20;;;;;;;22.50;100.00;101065.94;4779457;29;20065;-67
2023/08/19 06:47:03;;;;;;;18.50;9.43;;;;;;;22.52;100.00;101066.41;4779361;29;20062;-65
2023/08/19 06:49:31;;;;;;;20.83;11.38;;;;;;;22.54;100.00;101085.50;4794296;29;20054;-67
2023/08/19 06:51:59;;;;;;;14.10;9.02;;;;;;;22.57;100.00;101070.13;4810909;29;20062;-65
2023/08/19 06:54:27;;;;;;;21.52;9.27;;;;;;;22.60;100.00;101083.31;4811005;29;20500;-66
2023/08/19 06:57:07;;;;;;;19.00;9.95;;;;;;;22.61;100.00;101080.22;4810941;29;20119;-67
2023/08/19 06:59:38;;;;;;;15.35;8.75;;;;;;;22.63;100.00;101079.84;4796374;29;20070;-66
2023/08/19 07:02:07;;;;;;;15.57;8.75;;;;;;;22.66;100.00;101085.53;4812004;29;20086;-66
2023/08/19 07:04:36;;;;;;;15.82;9.68;;;;;;;22.68;100.00;101083.22;4794981;29;20414;-65
2023/08/19 07:07:05;;;;;;;14.85;9.23;;;;;;;22.72;100.00;101083.34;4813622;29;20058;-66
2023/08/19 07:09:34;;;;;;;17.17;9.93;;;;;;;22.76;100.00;101087.88;4783113;29;20059;-68
2023/08/19 07:12:02;;;;;;;18.25;9.68;;;;;;;22.78;100.00;101084.75;4811324;29;20138;-67
2023/08/19 07:14:31;;;;;;;17.60;10.40;;;;;;;22.82;100.00;101088.44;4813580;29;20066;-67
2023/08/19 07:17:00;;;;;;;17.20;9.48;;;;;;;22.84;100.00;101088.09;4798879;29;20054;-67
2023/08/19 07:19:36;;;;;;;19.70;10.38;;;;;;;22.88;100.00;101087.06;4819665;29;20082;-67
2023/08/19 07:22:05;;;;;;;14.85;9.95;;;;;;;22.90;100.00;101092.31;4798268;29;20062;-66
2023/08/19 07:24:33;;;;;;;14.30;8.88;;;;;;;22.92;100.00;101096.34;4811104;29;20050;-66
2023/08/19 07:27:06;;;;;;;16.70;10.07;;;;;;;22.96;100.00;101102.00;4823017;29;20102;-66
2023/08/19 07:29:35;;;;;;;17.27;10.23;;;;;;;22.97;100.00;101098.91;4794017;29;20057;-66
2023/08/19 07:32:03;;;;;;;16.60;10.07;;;;;;;23.01;100.00;101103.78;4811433;29;20050;-67
2023/08/19 07:34:31;;;;;;;15.10;10.13;;;;;;;23.04;100.00;101105.88;4804412;29;20073;-66
2023/08/19 07:36:59;;;;;;;16.40;10.07;;;;;;;23.07;100.00;101099.66;4821712;29;20133;-66
2023/08/19 07:39:27;;;;;;;15.18;9.25;;;;;;;23.13;100.00;101103.81;4809020;29;20488;-66
2023/08/19 07:41:55;;;;;;;16.80;9.45;;;;;;;23.17;100.00;101115.84;4793135;29;20050;-66
2023/08/19 07:44:23;;;;;;;19.38;9.48;;;;;;;23.22;100.00;101123.16;4808869;29;20047;-67
2023/08/19 07:46:50;;;;;;;21.27;9.65;;;;;;;23.26;100.00;101122.13;4819619;29;20055;-66
2023/08/19 07:49:37;;;;;;;17.99;10.20;;;;;;;23.28;100.00;101113.41;4727503;29;10000586;-64
2023/08/19 07:52:06;;;;;;;20.55;9.13;;;;;;;23.33;100.00;101111.22;4809661;29;20272;-67
2023/08/19 07:54:34;;;;;;;19.15;9.65;;;;;;;23.36;100.00;101121.66;4783140;29;20062;-66
2023/08/19 07:57:02;;;;;;;24.17;10.95;;;;;;;23.35;100.00;101142.25;4790975;29;20054;-65
2023/08/19 07:59:30;;;;;;;19.52;9.90;;;;;;;23.41;100.00;101133.72;4788875;29;20076;-65
2023/08/19 08:01:57;;;;;;;19.90;9.50;;;;;;;23.43;100.00;101145.28;4806768;29;20123;-66
2023/08/19 08:04:25;;;;;;;16.40;8.52;;;;;;;23.46;100.00;101136.25;4802534;29;20051;-66
2023/08/19 08:06:53;;;;;;;15.35;8.40;;;;;;;23.48;100.00;101140.31;4804559;29;20069;-68
2023/08/19 08:09:21;;;;;;;11.55;7.68;;;;;;;23.55;100.00;101139.72;4801261;29;20111;-68
2023/08/19 08:11:49;;;;;;;12.93;8.18;;;;;;;23.56;100.00;101146.91;4799065;29;20066;-68
2023/08/19 08:14:17;;;;;;;15.98;7.90;;;;;;;23.58;100.00;101139.84;4788876;29;20055;-68
2023/08/19 08:16:45;;;;;;;13.40;7.47;;;;;;;23.59;100.00;101140.63;4789639;29;20083;-68
2023/08/19 08:19:12;;;;;;;15.10;8.50;;;;;;;23.60;100.00;101148.66;4817388;29;20126;-68
2023/08/19 08:21:40;;;;;;;17.02;8.27;;;;;;;23.61;100.00;101135.53;4806684;29;20055;-68
2023/08/19 08:24:09;;;;;;;12.50;7.70;;;;;;;23.62;100.00;101134.41;4797436;29;20053;-68
2023/08/19 08:26:37;;;;;;;17.15;8.90;;;;;;;23.64;100.00;101126.47;4806136;29;20050;-66
2023/08/19 08:29:05;;;;;;;15.88;7.38;;;;;;;23.64;100.00;101132.06;4811840;29;20061;-68
2023/08/19 08:31:33;;;;;;;15.90;7.63;;;;;;;23.63;100.00;101157.47;4792324;29;20082;-68
2023/08/19 08:34:01;;;;;;;12.95;7.97;;;;;;;23.62;100.00;101162.22;4804032;29;20061;-67
2023/08/19 08:36:28;;;;;;;13.88;8.15;;;;;;;23.64;100.00;101147.94;4807244;29;20062;-69
2023/08/19 08:38:56;;;;;;;17.73;8.90;;;;;;;23.64;100.00;101148.75;4811668;29;20103;-67
2023/08/19 08:41:25;;;;;;;13.35;8.20;;;;;;;23.63;100.00;101147.13;4809042;29;20055;-67
2023/08/19 08:43:53;;;;;;;14.90;8.32;;;;;;;23.61;100.00;101161.38;4801674;29;20065;-68
2023/08/19 08:46:23;;;;;;;16.33;8.10;;;;;;;23.63;100.00;101186.09;4804341;29;20061;-69
2023/08/19 08:48:52;;;;;;;12.98;7.53;;;;;;;23.65;100.00;101188.53;4763667;29;20690;-69
2023/08/19 08:51:20;;;;;;;13.35;7.93;;;;;;;23.67;100.00;101198.16;4808332;29;20050;-67
2023/08/19 08:53:49;;;;;;;15.68;8.23;;;;;;;23.68;100.00;101194.19;4790467;29;20063;-67
2023/08/19 08:56:18;;;;;;;16.20;9.25;;;;;;;23.71;100.00;101187.91;4776838;29;20061;-68
2023/08/19 08:58:46;;;;;;;13.77;8.32;;;;;;;23.73;100.00;101193.97;4800837;29;20047;-68
2023/08/19 09:01:18;;;;;;;15.80;8.32;;;;;;;23.74;100.00;101198.41;4806901;29;20103;-68
2023/08/19 09:03:46;;;;;;;16.00;9.02;;;;;;;23.75;100.00;101194.44;4775781;29;20070;-68
2023/08/19 09:06:16;;;;;;;17.10;9.07;;;;;;;23.76;100.00;101196.09;4801249;29;20042;-67
2023/08/19 09:09:03;;;;;;;17.27;8.43;;;;;;;23.78;100.00;101199.31;4775776;29;20055;-68
2023/08/19 09:11:36;;;;;;;14.73;8.25;;;;;;;23.80;100.00;101201.75;4791875;29;20055;-68
2023/08/19 09:14:37;;;;;;;16.15;8.27;;;;;;;23.79;100.00;101217.66;4790905;29;20583;-67
2023/08/19 09:17:06;;;;;;;15.73;8.57;;;;;;;23.80;100.00;101229.59;4800412;29;20061;-67
2023/08/19 09:19:35;;;;;;;13.30;9.48;;;;;;;23.79;100.00;101231.56;4810224;29;20094;-67
2023/08/19 09:22:15;;;;;;;16.98;8.80;;;;;;;23.80;100.00;101238.72;4819509;29;20503;-67
2023/08/19 09:24:43;;;;;;;17.98;10.07;;;;;;;23.82;100.00;101235.63;4811787;29;20082;-65
2023/08/19 09:27:11;;;;;;;16.83;9.00;;;;;;;23.84;100.00;101240.84;4821870;29;20510;-66
2023/08/19 09:29:50;;;;;;;13.75;8.88;;;;;;;23.86;100.00;101230.16;4810523;29;20050;-66
2023/08/19 09:32:27;;;;;;;15.63;8.98;;;;;;;23.89;100.00;101235.84;4824019;29;20054;-67
2023/08/19 09:35:05;;;;;;;15.75;8.93;;;;;;;23.93;100.00;101238.72;4795062;29;20066;-66
2023/08/19 09:37:35;;;;;;;13.60;9.32;;;;;;;23.96;100.00;101238.84;4808238;29;20055;-67
2023/08/19 09:40:08;;;;;;;12.15;8.93;;;;;;;23.98;100.00;101236.53;4807801;29;20500;-66
2023/08/19 09:42:37;;;;;;;13.25;9.85;;;;;;;24.02;100.00;101248.56;4812726;29;20054;-66
2023/08/19 09:45:06;;;;;;;17.50;10.10;;;;;;;24.07;100.00;101253.09;4776356;29;20127;-66
2023/08/19 09:47:50;;;;;;;19.15;10.38;;;;;;;24.11;100.00;101262.38;4790883;29;20059;-66
2023/08/19 09:50:21;;;;;;;19.33;11.80;;;;;;;24.15;100.00;101260.53;4807281;29;20057;-65
2023/08/19 09:52:56;;;;;;;15.30;10.35;;;;;;;24.20;100.00;101265.84;4806916;29;20054;-66
2023/08/19 09:55:25;;;;;;;16.40;12.05;;;;;;;24.21;100.00;101270.25;4793718;29;20047;-66
2023/08/19 09:57:53;;;;;;;18.65;13.35;;;;;;;24.26;100.00;101273.97;4779852;29;20058;-67
2023/08/19 10:00:22;;;;;;;19.00;12.35;;;;;;;24.32;100.00;101267.81;4796148;29;20107;-67
2023/08/19 10:02:50;;;;;;;18.48;13.32;;;;;;;24.38;100.00;101265.59;4809206;29;20055;-67
2023/08/19 10:05:18;;;;;;;19.75;12.80;;;;;;;24.41;100.00;101276.84;4828737;29;20103;-67
2023/08/19 10:08:01;;;;;;;19.42;13.02;;;;;;;24.43;100.00;101284.84;4815008;29;20188;-66
2023/08/19 10:10:32;;;;;;;23.13;13.98;;;;;;;24.44;100.00;101292.06;4813389;29;20053;-66
2023/08/19 10:13:01;;;;;;;23.77;13.57;;;;;;;24.46;100.00;101295.31;4791691;29;20118;-68
2023/08/19 10:15:32;;;;;;;26.30;14.23;;;;;;;24.47;100.00;101302.50;4812862;29;20106;-67
2023/08/19 10:18:04;;;;;;;18.05;13.02;;;;;;;24.49;100.00;101300.19;4810481;29;20051;-68
2023/08/19 10:20:33;;;;;;;24.85;14.93;;;;;;;24.53;100.00;101305.84;4793087;29;20413;-67
2023/08/19 10:23:02;;;;;;;25.88;14.48;;;;;;;24.62;100.00;101315.69;4793687;29;20408;-67
2023/08/19 10:25:30;;;;;;;18.17;13.05;;;;;;;24.69;100.00;101308.72;4791171;29;20054;-66
2023/08/19 10:28:12;;;;;;;20.95;14.25;;;;;;;24.72;100.00;101306.03;4827231;29;20054;-67
2023/08/19 10:30:40;;;;;;;22.17;14.75;;;;;;;24.72;100.00;101308.03;4783006;29;20051;-68
2023/08/19 10:33:32;;;;;;;21.08;15.65;;;;;;;24.71;100.00;101311.97;4459899;29;10000063;-68
2023/08/19 10:36:04;;;;;;;20.48;14.75;;;;;;;24.70;100.00;101321.50;4775762;29;20393;-67
2023/08/19 10:38:45;;;;;;;21.65;15.10;;;;;;;24.72;100.00;101316.38;4775235;29;20565;-67
2023/08/19 10:41:24;;;;;;;21.10;15.57;;;;;;;24.77;100.00;101316.94;4797947;29;20078;-67
2023/08/19 10:44:12;;;;;;;30.35;16.83;;;;;;;24.80;100.00;101321.81;4789937;29;20111;-67
2023/08/19 10:46:47;;;;;;;21.38;17.23;;;;;;;24.86;100.00;101330.75;4790264;29;20415;-68
2023/08/19 10:49:19;;;;;;;24.33;16.88;;;;;;;24.85;100.00;101332.72;4790047;29;20067;-68
2023/08/19 10:52:00;;;;;;;25.13;16.88;;;;;;;24.87;100.00;101337.97;4799327;29;20431;-67
2023/08/19 10:54:40;;;;;;;28.00;17.35;;;;;;;24.88;100.00;101350.72;4789382;29;20059;-67
2023/08/19 10:57:22;;;;;;;21.17;16.40;;;;;;;24.90;100.00;101359.53;4789863;29;20706;-67
2023/08/19 10:59:58;;;;;;;23.15;15.90;;;;;;;24.89;100.00;101369.06;4789709;29;20062;-68
2023/08/19 11:02:30;;;;;;;;;;;;;;;24.84;100.00;101366.50;4790244;29;20063;-67
2023/08/19 11:04:58;;;;;;;34.30;15.05;;;;;;;24.80;100.00;101376.75;4785707;29;19937;-67
2023/08/19 11:07:26;;;;;;;18.52;11.40;;;;;;;24.76;100.00;101382.22;4788118;29;20062;-67
2023/08/19 11:09:54;;;;;;;18.33;11.00;;;;;;;24.73;100.00;101387.69;4804729;29;20150;-68
2023/08/19 11:12:23;;;;;;;16.02;10.77;;;;;;;24.69;100.00;101384.78;4776421;29;20065;-67
2023/08/19 11:14:52;;;;;;;15.35;10.43;;;;;;;24.65;100.00;101387.47;4791332;29;20058;-66
2023/08/19 11:17:28;;;;;;;17.70;12.63;;;;;;;24.63;100.00;101409.28;4789435;29;20039;-67